sensor_id;sensor_type;location;lat;lon;timestamp;pressure;altitude;pressure_sealevel;temperature;humidity
20043;BME280;10182;52.896;6.496;2023-02-12T00:01:36;103681.09;;;4.85;100.00
20043;BME280;10182;52.896;6.496;2023-02-12T00:06:38;103676.78;;;4.87;100.00
20043;BME280;10182;52.896;6.496;2023-02-12T00:11:41;103681.06;;;4.83;100.00
20043;BME280;10182;52.896;6.496;2023-02-12T00:16:43;103681.94;;;4.84;100.00
20043;BME280;10182;52.896;6.496;2023-02-12T00:21:44;103691.63;;;4.86;100.00
20043;BME280;10182;52.896;6.496;2023-02-12T00:26:47;103684.63;;;4.85;100.00
20043;BME280;10182;52.896;6.496;2023-02-12T00:31:50;103677.63;;;4.86;100.00
20043;BME280;10182;52.896;6.496;2023-02-12T00:36:52;103668.78;;;4.82;100.00
20043;BME280;10182;52.896;6.496;2023-02-12T00:41:55;103674.91;;;4.81;100.00
20043;BME280;10182;52.896;6.496;2023-02-12T00:46:57;103680.09;;;4.80;100.00
20043;BME280;10182;52.896;6.496;2023-02-12T00:52:03;103687.91;;;4.77;100.00
20043;BME280;10182;52.896;6.496;2023-02-12T00:57:06;103688.75;;;4.75;100.00
20043;BME280;10182;52.896;6.496;2023-02-12T01:02:08;103684.31;;;4.73;100.00
20043;BME280;10182;52.896;6.496;2023-02-12T01:07:10;103682.34;;;4.64;100.00
20043;BME280;10182;52.896;6.496;2023-02-12T01:12:13;103694.69;;;4.68;100.00
20043;BME280;10182;52.896;6.496;2023-02-12T01:17:15;103684.06;;;4.62;100.00
20043;BME280;10182;52.896;6.496;2023-02-12T01:22:16;103689.22;;;4.59;100.00
20043;BME280;10182;52.896;6.496;2023-02-12T01:27:19;103687.38;;;4.56;100.00
20043;BME280;10182;52.896;6.496;2023-02-12T01:32:21;103691.75;;;4.56;100.00
20043;BME280;10182;52.896;6.496;2023-02-12T01:37:23;103695.94;;;4.48;100.00
20043;BME280;10182;52.896;6.496;2023-02-12T01:42:26;103689.69;;;4.44;100.00
20043;BME280;10182;52.896;6.496;2023-02-12T01:47:28;103694.00;;;4.40;100.00
20043;BME280;10182;52.896;6.496;2023-02-12T01:52:31;103702.66;;;4.36;100.00
20043;BME280;10182;52.896;6.496;2023-02-12T01:57:38;103690.25;;;4.31;100.00
20043;BME280;10182;52.896;6.496;2023-02-12T02:02:42;103696.31;;;4.28;100.00
20043;BME280;10182;52.896;6.496;2023-02-12T02:07:45;103688.44;;;4.28;100.00
20043;BME280;10182;52.896;6.496;2023-02-12T02:12:48;103688.28;;;4.23;100.00
20043;BME280;10182;52.896;6.496;2023-02-12T02:18:11;103691.69;;;4.19;100.00
20043;BME280;10182;52.896;6.496;2023-02-12T02:29:23;103680.38;;;4.22;100.00
20043;BME280;10182;52.896;6.496;2023-02-12T02:34:38;103682.09;;;4.20;100.00
20043;BME280;10182;52.896;6.496;2023-02-12T02:39:47;103679.47;;;4.20;100.00
20043;BME280;10182;52.896;6.496;2023-02-12T02:44:52;103671.63;;;4.21;100.00
20043;BME280;10182;52.896;6.496;2023-02-12T02:50:00;103672.53;;;4.23;100.00
20043;BME280;10182;52.896;6.496;2023-02-12T02:55:05;103672.69;;;4.28;100.00
20043;BME280;10182;52.896;6.496;2023-02-12T03:00:12;103677.03;;;4.28;100.00
20043;BME280;10182;52.896;6.496;2023-02-12T03:05:22;103680.56;;;4.28;100.00
20043;BME280;10182;52.896;6.496;2023-02-12T03:10:28;103672.72;;;4.30;100.00
20043;BME280;10182;52.896;6.496;2023-02-12T03:15:36;103676.41;;;4.36;100.00
20043;BME280;10182;52.896;6.496;2023-02-12T03:20:42;103675.50;;;4.36;100.00
20043;BME280;10182;52.896;6.496;2023-02-12T03:25:49;103679.91;;;4.37;100.00
20043;BME280;10182;52.896;6.496;2023-02-12T03:31:06;103671.22;;;4.39;100.00
20043;BME280;10182;52.896;6.496;2023-02-12T03:36:31;103674.72;;;4.40;100.00
20043;BME280;10182;52.896;6.496;2023-02-12T03:41:40;103665.97;;;4.39;100.00
20043;BME280;10182;52.896;6.496;2023-02-12T03:46:52;103679.16;;;4.43;100.00
20043;BME280;10182;52.896;6.496;2023-02-12T03:51:58;103674.84;;;4.45;100.00
20043;BME280;10182;52.896;6.496;2023-02-12T03:57:04;103674.84;;;4.45;100.00
20043;BME280;10182;52.896;6.496;2023-02-12T04:02:07;103677.41;;;4.42;100.00
20043;BME280;10182;52.896;6.496;2023-02-12T04:07:11;103679.19;;;4.44;100.00
20043;BME280;10182;52.896;6.496;2023-02-12T04:12:33;103688.91;;;4.47;100.00
20043;BME280;10182;52.896;6.496;2023-02-12T04:17:44;103687.97;;;4.45;100.00
20043;BME280;10182;52.896;6.496;2023-02-12T04:22:56;103683.69;;;4.48;100.00
20043;BME280;10182;52.896;6.496;2023-02-12T04:28:06;103692.50;;;4.50;100.00
20043;BME280;10182;52.896;6.496;2023-02-12T04:33:14;103698.56;;;4.48;100.00
20043;BME280;10182;52.896;6.496;2023-02-12T04:38:22;103703.78;;;4.46;100.00
20043;BME280;10182;52.896;6.496;2023-02-12T04:43:27;103706.91;;;4.33;100.00
20043;BME280;10182;52.896;6.496;2023-02-12T04:48:29;103716.34;;;4.26;100.00
20043;BME280;10182;52.896;6.496;2023-02-12T04:53:32;103716.06;;;4.15;100.00
20043;BME280;10182;52.896;6.496;2023-02-12T04:58:34;103716.72;;;4.06;100.00
20043;BME280;10182;52.896;6.496;2023-02-12T05:03:37;103712.16;;;3.99;100.00
20043;BME280;10182;52.896;6.496;2023-02-12T05:08:40;103704.16;;;3.96;100.00
20043;BME280;10182;52.896;6.496;2023-02-12T05:13:41;103702.31;;;3.92;100.00
20043;BME280;10182;52.896;6.496;2023-02-12T05:18:43;103703.22;;;3.93;100.00
20043;BME280;10182;52.896;6.496;2023-02-12T05:23:46;103710.00;;;3.86;100.00
20043;BME280;10182;52.896;6.496;2023-02-12T05:28:48;103714.41;;;3.87;100.00
20043;BME280;10182;52.896;6.496;2023-02-12T05:33:50;103713.56;;;3.88;100.00
20043;BME280;10182;52.896;6.496;2023-02-12T05:38:56;103708.09;;;3.80;100.00
20043;BME280;10182;52.896;6.496;2023-02-12T05:43:58;103719.56;;;3.84;100.00
20043;BME280;10182;52.896;6.496;2023-02-12T05:49:00;103723.91;;;3.83;100.00
20043;BME280;10182;52.896;6.496;2023-02-12T05:54:04;103718.63;;;3.82;100.00
20043;BME280;10182;52.896;6.496;2023-02-12T05:59:10;103718.75;;;3.86;100.00
20043;BME280;10182;52.896;6.496;2023-02-12T06:04:15;103713.47;;;3.85;100.00
20043;BME280;10182;52.896;6.496;2023-02-12T06:09:19;103715.22;;;3.84;100.00
20043;BME280;10182;52.896;6.496;2023-02-12T06:14:20;103718.78;;;3.88;100.00
20043;BME280;10182;52.896;6.496;2023-02-12T06:19:22;103724.03;;;3.88;100.00
20043;BME280;10182;52.896;6.496;2023-02-12T06:24:25;103737.06;;;3.85;100.00
20043;BME280;10182;52.896;6.496;2023-02-12T06:29:27;103735.41;;;3.87;100.00
20043;BME280;10182;52.896;6.496;2023-02-12T06:34:29;103737.06;;;3.85;100.00
20043;BME280;10182;52.896;6.496;2023-02-12T06:39:32;103746.56;;;3.81;100.00
20043;BME280;10182;52.896;6.496;2023-02-12T06:44:33;103742.34;;;3.86;100.00
20043;BME280;10182;52.896;6.496;2023-02-12T06:49:35;103745.94;;;3.88;100.00
20043;BME280;10182;52.896;6.496;2023-02-12T06:54:38;103752.00;;;3.87;100.00
20043;BME280;10182;52.896;6.496;2023-02-12T06:59:40;103758.25;;;3.91;100.00
20043;BME280;10182;52.896;6.496;2023-02-12T07:04:42;103767.00;;;3.92;100.00
20043;BME280;10182;52.896;6.496;2023-02-12T07:09:45;103778.41;;;3.94;100.00
20043;BME280;10182;52.896;6.496;2023-02-12T07:14:46;103769.84;;;3.99;100.00
20043;BME280;10182;52.896;6.496;2023-02-12T07:19:48;103783.97;;;4.04;100.00
20043;BME280;10182;52.896;6.496;2023-02-12T07:24:51;103779.66;;;4.06;100.00
20043;BME280;10182;52.896;6.496;2023-02-12T07:29:53;103787.53;;;4.06;100.00
20043;BME280;10182;52.896;6.496;2023-02-12T07:34:54;103792.81;;;4.08;100.00
20043;BME280;10182;52.896;6.496;2023-02-12T07:39:57;103795.44;;;4.08;100.00
20043;BME280;10182;52.896;6.496;2023-02-12T07:44:59;103796.47;;;4.13;100.00
20043;BME280;10182;52.896;6.496;2023-02-12T07:50:01;103800.97;;;4.17;100.00
20043;BME280;10182;52.896;6.496;2023-02-12T07:55:05;103807.19;;;4.21;100.00
20043;BME280;10182;52.896;6.496;2023-02-12T08:00:08;103805.50;;;4.23;100.00
20043;BME280;10182;52.896;6.496;2023-02-12T08:05:10;103804.78;;;4.29;100.00
20043;BME280;10182;52.896;6.496;2023-02-12T08:10:13;103811.09;;;4.35;100.00
20043;BME280;10182;52.896;6.496;2023-02-12T08:15:15;103817.41;;;4.42;100.00
20043;BME280;10182;52.896;6.496;2023-02-12T08:20:17;103820.31;;;4.51;100.00
20043;BME280;10182;52.896;6.496;2023-02-12T08:25:20;103822.13;;;4.54;100.00
20043;BME280;10182;52.896;6.496;2023-02-12T08:30:21;103816.94;;;4.57;100.00
20043;BME280;10182;52.896;6.496;2023-02-12T08:35:23;103831.22;;;4.67;100.00
20043;BME280;10182;52.896;6.496;2023-02-12T08:40:29;103842.84;;;4.77;100.00
20043;BME280;10182;52.896;6.496;2023-02-12T08:45:31;103848.25;;;4.81;100.00
20043;BME280;10182;52.896;6.496;2023-02-12T08:50:33;103846.84;;;4.96;100.00
20043;BME280;10182;52.896;6.496;2023-02-12T08:55:36;103850.47;;;4.99;100.00
20043;BME280;10182;52.896;6.496;2023-02-12T09:00:38;103858.44;;;5.02;100.00
20043;BME280;10182;52.896;6.496;2023-02-12T09:05:40;103855.25;;;5.14;100.00
20043;BME280;10182;52.896;6.496;2023-02-12T09:10:44;103857.13;;;5.20;100.00
20043;BME280;10182;52.896;6.496;2023-02-12T09:15:46;103859.19;;;5.32;100.00
20043;BME280;10182;52.896;6.496;2023-02-12T09:20:47;103869.88;;;5.39;100.00
20043;BME280;10182;52.896;6.496;2023-02-12T09:25:51;103870.97;;;5.49;100.00
20043;BME280;10182;52.896;6.496;2023-02-12T09:30:52;103877.25;;;5.54;100.00
20043;BME280;10182;52.896;6.496;2023-02-12T09:35:54;103879.22;;;5.63;100.00
20043;BME280;10182;52.896;6.496;2023-02-12T09:41:08;103870.66;;;5.72;100.00
20043;BME280;10182;52.896;6.496;2023-02-12T09:46:17;103873.50;;;5.81;100.00
20043;BME280;10182;52.896;6.496;2023-02-12T09:51:21;103874.53;;;5.88;100.00
20043;BME280;10182;52.896;6.496;2023-02-12T09:56:25;103864.16;;;5.96;100.00
20043;BME280;10182;52.896;6.496;2023-02-12T10:01:28;103867.22;;;6.13;100.00
20043;BME280;10182;52.896;6.496;2023-02-12T10:06:35;103879.91;;;6.32;100.00
20043;BME280;10182;52.896;6.496;2023-02-12T10:11:59;103870.59;;;6.48;100.00
20043;BME280;10182;52.896;6.496;2023-02-12T10:17:10;103864.84;;;6.69;100.00
20043;BME280;10182;52.896;6.496;2023-02-12T10:22:21;103870.34;;;6.80;100.00
20043;BME280;10182;52.896;6.496;2023-02-12T10:27:36;103869.72;;;6.93;100.00
20043;BME280;10182;52.896;6.496;2023-02-12T10:32:39;103879.50;;;7.02;100.00
20043;BME280;10182;52.896;6.496;2023-02-12T10:37:47;103867.53;;;7.20;100.00
20043;BME280;10182;52.896;6.496;2023-02-12T10:42:52;103867.94;;;7.44;100.00
20043;BME280;10182;52.896;6.496;2023-02-12T10:48:05;103870.13;;;7.72;100.00
20043;BME280;10182;52.896;6.496;2023-02-12T10:53:14;103859.81;;;7.89;100.00
20043;BME280;10182;52.896;6.496;2023-02-12T10:58:22;103859.94;;;7.98;100.00
20043;BME280;10182;52.896;6.496;2023-02-12T11:03:28;103854.69;;;8.00;100.00
20043;BME280;10182;52.896;6.496;2023-02-12T11:08:32;103854.78;;;8.07;100.00
20043;BME280;10182;52.896;6.496;2023-02-12T11:13:38;103849.63;;;8.15;100.00
20043;BME280;10182;52.896;6.496;2023-02-12T11:18:41;103852.34;;;8.23;100.00
20043;BME280;10182;52.896;6.496;2023-02-12T11:23:43;103848.91;;;8.27;100.00
20043;BME280;10182;52.896;6.496;2023-02-12T11:28:53;103837.44;;;8.28;100.00
20043;BME280;10182;52.896;6.496;2023-02-12T11:34:08;103844.59;;;8.35;100.00
20043;BME280;10182;52.896;6.496;2023-02-12T11:39:18;103837.53;;;8.36;100.00
20043;BME280;10182;52.896;6.496;2023-02-12T11:44:25;103829.56;;;8.31;100.00
20043;BME280;10182;52.896;6.496;2023-02-12T11:49:30;103833.22;;;8.41;100.00
20043;BME280;10182;52.896;6.496;2023-02-12T11:54:38;103832.31;;;8.42;100.00
20043;BME280;10182;52.896;6.496;2023-02-12T11:59:44;103820.84;;;8.38;100.00
20043;BME280;10182;52.896;6.496;2023-02-12T12:04:48;103812.97;;;8.44;100.00
20043;BME280;10182;52.896;6.496;2023-02-12T12:09:56;103813.81;;;8.42;100.00
20043;BME280;10182;52.896;6.496;2023-02-12T12:15:03;103813.88;;;8.43;100.00
20043;BME280;10182;52.896;6.496;2023-02-12T12:20:26;103794.41;;;8.35;100.00
20043;BME280;10182;52.896;6.496;2023-02-12T12:25:34;103800.53;;;8.34;100.00
20043;BME280;10182;52.896;6.496;2023-02-12T12:30:50;103800.53;;;8.31;100.00
20043;BME280;10182;52.896;6.496;2023-02-12T12:36:03;103799.50;;;8.21;100.00
20043;BME280;10182;52.896;6.496;2023-02-12T12:41:10;103793.34;;;8.21;100.00
20043;BME280;10182;52.896;6.496;2023-02-12T12:46:36;103789.88;;;8.26;100.00
20043;BME280;10182;52.896;6.496;2023-02-12T12:57:38;103782.03;;;8.31;100.00
20043;BME280;10182;52.896;6.496;2023-02-12T13:03:18;103782.03;;;8.33;100.00
20043;BME280;10182;52.896;6.496;2023-02-12T13:08:39;103767.91;;;8.29;100.00
20043;BME280;10182;52.896;6.496;2023-02-12T13:13:47;103768.00;;;8.38;100.00
20043;BME280;10182;52.896;6.496;2023-02-12T13:18:57;103762.72;;;8.37;100.00
20043;BME280;10182;52.896;6.496;2023-02-12T13:24:02;103764.44;;;8.36;100.00
20043;BME280;10182;52.896;6.496;2023-02-12T13:29:11;103762.75;;;8.41;100.00
20043;BME280;10182;52.896;6.496;2023-02-12T13:34:19;103760.13;;;8.44;100.00
20043;BME280;10182;52.896;6.496;2023-02-12T13:39:26;103759.16;;;8.35;100.00
20043;BME280;10182;52.896;6.496;2023-02-12T13:44:35;103757.44;;;8.37;100.00
20043;BME280;10182;52.896;6.496;2023-02-12T13:49:47;103763.59;;;8.37;100.00
20043;BME280;10182;52.896;6.496;2023-02-12T13:55:06;103752.06;;;8.29;100.00
20043;BME280;10182;52.896;6.496;2023-02-12T14:06:14;103752.84;;;8.20;100.00
20043;BME280;10182;52.896;6.496;2023-02-12T14:11:18;103750.16;;;8.17;100.00
20043;BME280;10182;52.896;6.496;2023-02-12T14:16:38;103751.09;;;8.21;100.00
20043;BME280;10182;52.896;6.496;2023-02-12T14:21:42;103741.50;;;8.29;100.00
20043;BME280;10182;52.896;6.496;2023-02-12T14:26:44;103736.13;;;8.23;100.00
20043;BME280;10182;52.896;6.496;2023-02-12T14:31:46;103743.19;;;8.22;100.00
20043;BME280;10182;52.896;6.496;2023-02-12T14:37:09;103743.03;;;8.08;100.00
20043;BME280;10182;52.896;6.496;2023-02-12T14:42:41;103736.81;;;8.03;100.00
20043;BME280;10182;52.896;6.496;2023-02-12T14:47:50;103742.91;;;7.99;100.00
20043;BME280;10182;52.896;6.496;2023-02-12T14:52:59;103739.31;;;7.91;100.00
20043;BME280;10182;52.896;6.496;2023-02-12T14:58:06;103740.09;;;7.84;100.00
20043;BME280;10182;52.896;6.496;2023-02-12T15:03:21;103741.84;;;7.83;100.00
20043;BME280;10182;52.896;6.496;2023-02-12T15:08:31;103736.50;;;7.77;100.00
20043;BME280;10182;52.896;6.496;2023-02-12T15:13:46;103734.69;;;7.73;100.00
20043;BME280;10182;52.896;6.496;2023-02-12T15:18:53;103738.16;;;7.69;100.00
20043;BME280;10182;52.896;6.496;2023-02-12T15:24:04;103732.84;;;7.67;100.00
20043;BME280;10182;52.896;6.496;2023-02-12T15:29:16;103727.56;;;7.66;100.00
20043;BME280;10182;52.896;6.496;2023-02-12T15:34:22;103721.34;;;7.62;100.00
20043;BME280;10182;52.896;6.496;2023-02-12T15:39:26;103721.31;;;7.57;100.00
20043;BME280;10182;52.896;6.496;2023-02-12T15:44:30;103714.22;;;7.53;100.00
20043;BME280;10182;52.896;6.496;2023-02-12T15:49:36;103714.16;;;7.52;100.00
20043;BME280;10182;52.896;6.496;2023-02-12T15:54:39;103722.06;;;7.52;100.00
20043;BME280;10182;52.896;6.496;2023-02-12T15:59:41;103725.59;;;7.49;100.00
20043;BME280;10182;52.896;6.496;2023-02-12T16:04:43;103719.38;;;7.47;100.00
20043;BME280;10182;52.896;6.496;2023-02-12T16:09:47;103714.94;;;7.43;100.00
20043;BME280;10182;52.896;6.496;2023-02-12T16:14:52;103714.88;;;7.38;100.00
20043;BME280;10182;52.896;6.496;2023-02-12T16:19:56;103715.72;;;7.36;100.00
20043;BME280;10182;52.896;6.496;2023-02-12T16:25:00;103713.94;;;7.33;100.00
20043;BME280;10182;52.896;6.496;2023-02-12T16:30:04;103711.16;;;7.25;100.00
20043;BME280;10182;52.896;6.496;2023-02-12T16:35:24;103719.06;;;7.24;100.00
20043;BME280;10182;52.896;6.496;2023-02-12T16:40:33;103726.94;;;7.21;100.00
20043;BME280;10182;52.896;6.496;2023-02-12T16:45:37;103727.75;;;7.17;100.00
20043;BME280;10182;52.896;6.496;2023-02-12T16:50:44;103730.34;;;7.14;100.00
20043;BME280;10182;52.896;6.496;2023-02-12T16:55:48;103740.81;;;7.10;100.00
20043;BME280;10182;52.896;6.496;2023-02-12T17:00:51;103746.94;;;7.08;100.00
20043;BME280;10182;52.896;6.496;2023-02-12T17:05:53;103748.63;;;7.01;100.00
20043;BME280;10182;52.896;6.496;2023-02-12T17:10:56;103756.53;;;7.01;100.00
20043;BME280;10182;52.896;6.496;2023-02-12T17:15:59;103760.88;;;6.99;100.00
20043;BME280;10182;52.896;6.496;2023-02-12T17:21:04;103761.66;;;6.93;100.00
20043;BME280;10182;52.896;6.496;2023-02-12T17:26:10;103771.25;;;6.91;100.00
20043;BME280;10182;52.896;6.496;2023-02-12T17:31:11;103778.22;;;6.86;100.00
20043;BME280;10182;52.896;6.496;2023-02-12T17:36:13;103787.00;;;6.85;100.00
20043;BME280;10182;52.896;6.496;2023-02-12T17:41:16;103786.94;;;6.82;100.00
20043;BME280;10182;52.896;6.496;2023-02-12T17:46:20;103796.53;;;6.78;100.00
20043;BME280;10182;52.896;6.496;2023-02-12T17:51:23;103804.38;;;6.75;100.00
20043;BME280;10182;52.896;6.496;2023-02-12T17:56:26;103803.44;;;6.72;100.00
20043;BME280;10182;52.896;6.496;2023-02-12T18:01:28;103812.22;;;6.72;100.00
20043;BME280;10182;52.896;6.496;2023-02-12T18:06:30;103815.72;;;6.71;100.00
20043;BME280;10182;52.896;6.496;2023-02-12T18:11:33;103808.72;;;6.73;100.00
20043;BME280;10182;52.896;6.496;2023-02-12T18:16:37;103802.47;;;6.68;100.00
20043;BME280;10182;52.896;6.496;2023-02-12T18:21:39;103811.25;;;6.66;100.00
20043;BME280;10182;52.896;6.496;2023-02-12T18:26:42;103806.72;;;6.60;100.00
20043;BME280;10182;52.896;6.496;2023-02-12T18:31:44;103811.94;;;6.57;100.00
20043;BME280;10182;52.896;6.496;2023-02-12T18:36:45;103808.34;;;6.53;100.00
20043;BME280;10182;52.896;6.496;2023-02-12T18:41:48;103809.16;;;6.49;100.00
20043;BME280;10182;52.896;6.496;2023-02-12T18:46:50;103809.13;;;6.48;100.00
20043;BME280;10182;52.896;6.496;2023-02-12T18:51:52;103806.44;;;6.44;100.00
20043;BME280;10182;52.896;6.496;2023-02-12T18:56:55;103809.06;;;6.44;100.00
20043;BME280;10182;52.896;6.496;2023-02-12T19:01:57;103806.47;;;6.46;100.00
20043;BME280;10182;52.896;6.496;2023-02-12T19:06:59;103805.63;;;6.47;100.00
20043;BME280;10182;52.896;6.496;2023-02-12T19:12:02;103810.84;;;6.46;100.00
20043;BME280;10182;52.896;6.496;2023-02-12T19:17:05;103809.91;;;6.43;100.00
20043;BME280;10182;52.896;6.496;2023-02-12T19:22:06;103816.00;;;6.41;100.00
20043;BME280;10182;52.896;6.496;2023-02-12T19:27:09;103816.88;;;6.38;100.00
20043;BME280;10182;52.896;6.496;2023-02-12T19:32:11;103803.72;;;6.40;100.00
20043;BME280;10182;52.896;6.496;2023-02-12T19:37:13;103805.44;;;6.38;100.00
20043;BME280;10182;52.896;6.496;2023-02-12T19:42:16;103793.97;;;6.34;100.00
20043;BME280;10182;52.896;6.496;2023-02-12T19:47:19;103782.53;;;6.34;100.00
20043;BME280;10182;52.896;6.496;2023-02-12T19:52:21;103790.38;;;6.31;100.00
20043;BME280;10182;52.896;6.496;2023-02-12T19:57:24;103795.63;;;6.29;100.00
20043;BME280;10182;52.896;6.496;2023-02-12T20:02:26;103789.59;;;6.36;100.00
20043;BME280;10182;52.896;6.496;2023-02-12T20:07:28;103789.59;;;6.36;100.00
20043;BME280;10182;52.896;6.496;2023-02-12T20:12:31;103789.56;;;6.33;100.00
20043;BME280;10182;52.896;6.496;2023-02-12T20:17:33;103796.50;;;6.31;100.00
20043;BME280;10182;52.896;6.496;2023-02-12T20:22:35;103791.13;;;6.25;100.00
20043;BME280;10182;52.896;6.496;2023-02-12T20:27:39;103791.00;;;6.19;100.00
20043;BME280;10182;52.896;6.496;2023-02-12T20:32:40;103796.28;;;6.20;100.00
20043;BME280;10182;52.896;6.496;2023-02-12T20:37:44;103793.66;;;6.20;100.00
20043;BME280;10182;52.896;6.496;2023-02-12T20:42:47;103801.56;;;6.20;100.00
20043;BME280;10182;52.896;6.496;2023-02-12T20:47:49;103797.13;;;6.18;100.00
20043;BME280;10182;52.896;6.496;2023-02-12T20:52:50;103798.88;;;6.17;100.00
20043;BME280;10182;52.896;6.496;2023-02-12T20:57:54;103790.13;;;6.18;100.00
20043;BME280;10182;52.896;6.496;2023-02-12T21:02:56;103792.72;;;6.15;100.00
20043;BME280;10182;52.896;6.496;2023-02-12T21:08:00;103791.81;;;6.16;100.00
20043;BME280;10182;52.896;6.496;2023-02-12T21:13:03;103799.75;;;6.18;100.00
20043;BME280;10182;52.896;6.496;2023-02-12T21:18:04;103791.84;;;6.18;100.00
20043;BME280;10182;52.896;6.496;2023-02-12T21:23:25;103799.75;;;6.18;100.00
20043;BME280;10182;52.896;6.496;2023-02-12T21:28:28;103803.34;;;6.21;100.00
20043;BME280;10182;52.896;6.496;2023-02-12T21:33:29;103799.84;;;6.21;100.00
20043;BME280;10182;52.896;6.496;2023-02-12T21:38:32;103806.78;;;6.19;100.00
20043;BME280;10182;52.896;6.496;2023-02-12T21:43:36;103791.78;;;6.13;100.00
20043;BME280;10182;52.896;6.496;2023-02-12T21:48:38;103803.19;;;6.14;100.00
20043;BME280;10182;52.896;6.496;2023-02-12T21:53:40;103804.09;;;6.14;100.00
20043;BME280;10182;52.896;6.496;2023-02-12T21:58:43;103802.31;;;6.15;100.00
20043;BME280;10182;52.896;6.496;2023-02-12T22:03:45;103795.28;;;6.14;100.00
20043;BME280;10182;52.896;6.496;2023-02-12T22:08:47;103791.81;;;6.15;100.00
20043;BME280;10182;52.896;6.496;2023-02-12T22:13:50;103782.09;;;6.12;100.00
20043;BME280;10182;52.896;6.496;2023-02-12T22:18:54;103771.50;;;6.09;100.00
20043;BME280;10182;52.896;6.496;2023-02-12T22:23:59;103767.19;;;6.11;100.00
20043;BME280;10182;52.896;6.496;2023-02-12T22:29:04;103775.97;;;6.13;100.00
20043;BME280;10182;52.896;6.496;2023-02-12T22:34:09;103774.19;;;6.12;100.00
20043;BME280;10182;52.896;6.496;2023-02-12T22:39:12;103772.38;;;6.09;100.00
20043;BME280;10182;52.896;6.496;2023-02-12T22:44:16;103774.03;;;6.03;100.00
20043;BME280;10182;52.896;6.496;2023-02-12T22:49:17;103773.19;;;6.05;100.00
20043;BME280;10182;52.896;6.496;2023-02-12T22:54:19;103773.25;;;6.08;100.00
20043;BME280;10182;52.896;6.496;2023-02-12T22:59:23;103783.84;;;6.12;100.00
20043;BME280;10182;52.896;6.496;2023-02-12T23:04:24;103774.88;;;6.02;100.00
20043;BME280;10182;52.896;6.496;2023-02-12T23:09:28;103775.81;;;6.05;100.00
20043;BME280;10182;52.896;6.496;2023-02-12T23:14:31;103773.19;;;6.05;100.00
20043;BME280;10182;52.896;6.496;2023-02-12T23:19:35;103770.53;;;6.04;100.00
20043;BME280;10182;52.896;6.496;2023-02-12T23:24:36;103760.78;;;6.00;100.00
20043;BME280;10182;52.896;6.496;2023-02-12T23:29:40;103759.16;;;6.05;100.00
20043;BME280;10182;52.896;6.496;2023-02-12T23:34:41;103755.56;;;6.01;100.00
20043;BME280;10182;52.896;6.496;2023-02-12T23:39:43;103744.31;;;6.08;100.00
20043;BME280;10182;52.896;6.496;2023-02-12T23:44:46;103742.63;;;6.14;100.00
20043;BME280;10182;52.896;6.496;2023-02-12T23:49:48;103737.47;;;6.17;100.00
20043;BME280;10182;52.896;6.496;2023-02-12T23:54:50;103719.91;;;6.17;100.00
20043;BME280;10182;52.896;6.496;2023-02-12T23:59:53;103726.94;;;6.17;100.00
